sensor_id;sensor_type;location;lat;lon;timestamp;P1;durP1;ratioP1;P2;durP2;ratioP2
69754;SDS011;57023;52.218;5.158;2023-03-14T00:01:50;14.50;;;3.60;;
69754;SDS011;57023;52.218;5.158;2023-03-14T00:04:15;12.20;;;3.22;;
69754;SDS011;57023;52.218;5.158;2023-03-14T00:06:41;11.45;;;3.20;;
69754;SDS011;57023;52.218;5.158;2023-03-14T00:09:06;15.52;;;4.15;;
69754;SDS011;57023;52.218;5.158;2023-03-14T00:11:32;12.07;;;2.95;;
69754;SDS011;57023;52.218;5.158;2023-03-14T00:13:57;10.23;;;2.97;;
69754;SDS011;57023;52.218;5.158;2023-03-14T00:16:22;9.93;;;2.80;;
69754;SDS011;57023;52.218;5.158;2023-03-14T00:18:48;8.00;;;2.67;;
69754;SDS011;57023;52.218;5.158;2023-03-14T00:21:13;12.55;;;3.40;;
69754;SDS011;57023;52.218;5.158;2023-03-14T00:23:39;10.52;;;3.45;;
69754;SDS011;57023;52.218;5.158;2023-03-14T00:26:15;9.35;;;2.95;;
69754;SDS011;57023;52.218;5.158;2023-03-14T00:28:42;12.00;;;4.27;;
69754;SDS011;57023;52.218;5.158;2023-03-14T00:31:09;9.85;;;3.10;;
69754;SDS011;57023;52.218;5.158;2023-03-14T00:33:36;12.98;;;2.95;;
69754;SDS011;57023;52.218;5.158;2023-03-14T00:36:03;10.40;;;2.70;;
69754;SDS011;57023;52.218;5.158;2023-03-14T00:38:31;11.95;;;3.17;;
69754;SDS011;57023;52.218;5.158;2023-03-14T00:40:57;12.70;;;3.38;;
69754;SDS011;57023;52.218;5.158;2023-03-14T00:43:23;12.23;;;3.63;;
69754;SDS011;57023;52.218;5.158;2023-03-14T00:45:49;12.95;;;3.58;;
69754;SDS011;57023;52.218;5.158;2023-03-14T00:48:14;11.82;;;3.72;;
69754;SDS011;57023;52.218;5.158;2023-03-14T00:50:40;16.10;;;4.22;;
69754;SDS011;57023;52.218;5.158;2023-03-14T00:53:05;10.40;;;3.28;;
69754;SDS011;57023;52.218;5.158;2023-03-14T00:55:31;12.60;;;3.45;;
69754;SDS011;57023;52.218;5.158;2023-03-14T00:57:57;9.90;;;3.25;;
69754;SDS011;57023;52.218;5.158;2023-03-14T01:00:23;9.82;;;3.20;;
69754;SDS011;57023;52.218;5.158;2023-03-14T01:02:48;11.52;;;3.58;;
69754;SDS011;57023;52.218;5.158;2023-03-14T01:05:14;11.45;;;3.38;;
69754;SDS011;57023;52.218;5.158;2023-03-14T01:07:39;9.77;;;3.40;;
69754;SDS011;57023;52.218;5.158;2023-03-14T01:10:05;9.95;;;3.20;;
69754;SDS011;57023;52.218;5.158;2023-03-14T01:12:31;6.45;;;2.47;;
69754;SDS011;57023;52.218;5.158;2023-03-14T01:14:56;7.65;;;3.10;;
69754;SDS011;57023;52.218;5.158;2023-03-14T01:17:22;12.00;;;3.75;;
69754;SDS011;57023;52.218;5.158;2023-03-14T01:19:47;9.13;;;3.20;;
69754;SDS011;57023;52.218;5.158;2023-03-14T01:22:12;10.98;;;3.20;;
69754;SDS011;57023;52.218;5.158;2023-03-14T01:24:38;11.52;;;3.63;;
69754;SDS011;57023;52.218;5.158;2023-03-14T01:27:03;13.23;;;3.20;;
69754;SDS011;57023;52.218;5.158;2023-03-14T01:29:28;12.95;;;3.55;;
69754;SDS011;57023;52.218;5.158;2023-03-14T01:31:54;9.10;;;3.22;;
69754;SDS011;57023;52.218;5.158;2023-03-14T01:34:19;10.38;;;3.33;;
69754;SDS011;57023;52.218;5.158;2023-03-14T01:36:45;12.88;;;4.32;;
69754;SDS011;57023;52.218;5.158;2023-03-14T01:39:10;8.82;;;3.33;;
69754;SDS011;57023;52.218;5.158;2023-03-14T01:41:36;7.85;;;2.67;;
69754;SDS011;57023;52.218;5.158;2023-03-14T01:44:01;9.40;;;3.60;;
69754;SDS011;57023;52.218;5.158;2023-03-14T01:46:42;8.95;;;3.20;;
69754;SDS011;57023;52.218;5.158;2023-03-14T01:49:26;8.35;;;2.95;;
69754;SDS011;57023;52.218;5.158;2023-03-14T01:54:27;10.88;;;3.38;;
69754;SDS011;57023;52.218;5.158;2023-03-14T01:57:37;12.45;;;3.67;;
69754;SDS011;57023;52.218;5.158;2023-03-14T01:59:46;13.77;;;3.35;;
69754;SDS011;57023;52.218;5.158;2023-03-14T02:02:14;12.40;;;3.55;;
69754;SDS011;57023;52.218;5.158;2023-03-14T02:04:40;9.95;;;3.42;;
69754;SDS011;57023;52.218;5.158;2023-03-14T02:09:39;12.30;;;3.30;;
69754;SDS011;57023;52.218;5.158;2023-03-14T02:12:05;11.95;;;3.20;;
69754;SDS011;57023;52.218;5.158;2023-03-14T02:14:33;8.75;;;2.97;;
69754;SDS011;57023;52.218;5.158;2023-03-14T02:17:00;13.30;;;2.95;;
69754;SDS011;57023;52.218;5.158;2023-03-14T02:19:34;12.05;;;3.22;;
69754;SDS011;57023;52.218;5.158;2023-03-14T02:22:07;12.18;;;3.88;;
69754;SDS011;57023;52.218;5.158;2023-03-14T02:24:38;13.63;;;3.72;;
69754;SDS011;57023;52.218;5.158;2023-03-14T02:29:39;8.27;;;2.75;;
69754;SDS011;57023;52.218;5.158;2023-03-14T02:32:08;10.50;;;2.63;;
69754;SDS011;57023;52.218;5.158;2023-03-14T02:34:34;9.60;;;2.53;;
69754;SDS011;57023;52.218;5.158;2023-03-14T02:37:01;9.45;;;2.45;;
69754;SDS011;57023;52.218;5.158;2023-03-14T02:39:37;7.63;;;2.35;;
69754;SDS011;57023;52.218;5.158;2023-03-14T02:42:04;6.80;;;2.00;;
69754;SDS011;57023;52.218;5.158;2023-03-14T02:44:29;8.95;;;3.13;;
69754;SDS011;57023;52.218;5.158;2023-03-14T02:46:55;8.68;;;2.40;;
69754;SDS011;57023;52.218;5.158;2023-03-14T02:49:21;6.65;;;2.30;;
69754;SDS011;57023;52.218;5.158;2023-03-14T02:51:46;8.02;;;2.50;;
69754;SDS011;57023;52.218;5.158;2023-03-14T02:54:11;13.27;;;2.80;;
69754;SDS011;57023;52.218;5.158;2023-03-14T02:56:37;8.63;;;2.67;;
69754;SDS011;57023;52.218;5.158;2023-03-14T02:59:03;7.18;;;2.28;;
69754;SDS011;57023;52.218;5.158;2023-03-14T03:01:29;10.88;;;2.33;;
69754;SDS011;57023;52.218;5.158;2023-03-14T03:03:54;6.15;;;2.15;;
69754;SDS011;57023;52.218;5.158;2023-03-14T03:06:20;8.55;;;2.80;;
69754;SDS011;57023;52.218;5.158;2023-03-14T03:08:45;10.43;;;3.25;;
69754;SDS011;57023;52.218;5.158;2023-03-14T03:11:10;5.78;;;2.28;;
69754;SDS011;57023;52.218;5.158;2023-03-14T03:13:36;9.30;;;2.88;;
69754;SDS011;57023;52.218;5.158;2023-03-14T03:16:01;10.45;;;3.40;;
69754;SDS011;57023;52.218;5.158;2023-03-14T03:18:26;11.15;;;2.80;;
69754;SDS011;57023;52.218;5.158;2023-03-14T03:20:52;11.70;;;3.15;;
69754;SDS011;57023;52.218;5.158;2023-03-14T03:23:17;10.18;;;3.15;;
69754;SDS011;57023;52.218;5.158;2023-03-14T03:25:47;7.18;;;2.47;;
69754;SDS011;57023;52.218;5.158;2023-03-14T03:28:13;8.13;;;2.90;;
69754;SDS011;57023;52.218;5.158;2023-03-14T03:30:39;7.93;;;2.72;;
69754;SDS011;57023;52.218;5.158;2023-03-14T03:33:05;11.60;;;3.03;;
69754;SDS011;57023;52.218;5.158;2023-03-14T03:35:30;11.32;;;3.10;;
69754;SDS011;57023;52.218;5.158;2023-03-14T03:37:56;8.10;;;2.80;;
69754;SDS011;57023;52.218;5.158;2023-03-14T03:40:21;7.28;;;2.80;;
69754;SDS011;57023;52.218;5.158;2023-03-14T03:42:46;9.30;;;2.97;;
69754;SDS011;57023;52.218;5.158;2023-03-14T03:45:12;10.10;;;3.40;;
69754;SDS011;57023;52.218;5.158;2023-03-14T03:47:37;7.45;;;2.97;;
69754;SDS011;57023;52.218;5.158;2023-03-14T03:50:02;10.82;;;3.38;;
69754;SDS011;57023;52.218;5.158;2023-03-14T03:52:28;8.05;;;2.60;;
69754;SDS011;57023;52.218;5.158;2023-03-14T03:54:53;11.40;;;3.00;;
69754;SDS011;57023;52.218;5.158;2023-03-14T03:57:19;8.25;;;2.67;;
69754;SDS011;57023;52.218;5.158;2023-03-14T03:59:45;12.80;;;2.97;;
69754;SDS011;57023;52.218;5.158;2023-03-14T04:02:10;10.65;;;3.10;;
69754;SDS011;57023;52.218;5.158;2023-03-14T04:04:37;10.10;;;2.35;;
69754;SDS011;57023;52.218;5.158;2023-03-14T04:07:03;7.50;;;3.05;;
69754;SDS011;57023;52.218;5.158;2023-03-14T04:09:29;9.02;;;2.63;;
69754;SDS011;57023;52.218;5.158;2023-03-14T04:11:55;8.75;;;2.33;;
69754;SDS011;57023;52.218;5.158;2023-03-14T04:14:20;10.10;;;2.78;;
69754;SDS011;57023;52.218;5.158;2023-03-14T04:16:46;7.50;;;2.35;;
69754;SDS011;57023;52.218;5.158;2023-03-14T04:19:11;9.45;;;2.67;;
69754;SDS011;57023;52.218;5.158;2023-03-14T04:21:36;13.13;;;3.35;;
69754;SDS011;57023;52.218;5.158;2023-03-14T04:24:05;7.43;;;2.53;;
69754;SDS011;57023;52.218;5.158;2023-03-14T04:26:32;8.60;;;2.87;;
69754;SDS011;57023;52.218;5.158;2023-03-14T04:28:57;9.50;;;2.60;;
69754;SDS011;57023;52.218;5.158;2023-03-14T04:31:22;10.95;;;3.60;;
69754;SDS011;57023;52.218;5.158;2023-03-14T04:33:48;8.80;;;3.03;;
69754;SDS011;57023;52.218;5.158;2023-03-14T04:36:13;7.28;;;3.17;;
69754;SDS011;57023;52.218;5.158;2023-03-14T04:38:39;11.98;;;3.38;;
69754;SDS011;57023;52.218;5.158;2023-03-14T04:41:05;9.27;;;2.83;;
69754;SDS011;57023;52.218;5.158;2023-03-14T04:43:30;8.18;;;2.70;;
69754;SDS011;57023;52.218;5.158;2023-03-14T04:45:57;9.05;;;2.60;;
69754;SDS011;57023;52.218;5.158;2023-03-14T04:48:23;11.07;;;2.88;;
69754;SDS011;57023;52.218;5.158;2023-03-14T04:50:49;11.68;;;3.38;;
69754;SDS011;57023;52.218;5.158;2023-03-14T04:53:16;6.70;;;2.58;;
69754;SDS011;57023;52.218;5.158;2023-03-14T04:55:42;8.07;;;2.80;;
69754;SDS011;57023;52.218;5.158;2023-03-14T04:58:12;8.45;;;2.65;;
69754;SDS011;57023;52.218;5.158;2023-03-14T05:00:37;9.82;;;3.05;;
69754;SDS011;57023;52.218;5.158;2023-03-14T05:03:02;5.80;;;2.30;;
69754;SDS011;57023;52.218;5.158;2023-03-14T05:05:28;10.27;;;3.20;;
69754;SDS011;57023;52.218;5.158;2023-03-14T05:07:53;9.77;;;2.67;;
69754;SDS011;57023;52.218;5.158;2023-03-14T05:10:18;11.80;;;3.20;;
69754;SDS011;57023;52.218;5.158;2023-03-14T05:12:44;12.13;;;3.97;;
69754;SDS011;57023;52.218;5.158;2023-03-14T05:15:09;8.73;;;2.75;;
69754;SDS011;57023;52.218;5.158;2023-03-14T05:17:35;14.60;;;3.55;;
69754;SDS011;57023;52.218;5.158;2023-03-14T05:20:00;13.23;;;2.92;;
69754;SDS011;57023;52.218;5.158;2023-03-14T05:22:26;11.82;;;3.15;;
69754;SDS011;57023;52.218;5.158;2023-03-14T05:24:51;8.68;;;2.90;;
69754;SDS011;57023;52.218;5.158;2023-03-14T05:27:21;13.98;;;2.83;;
69754;SDS011;57023;52.218;5.158;2023-03-14T05:29:47;8.65;;;3.05;;
69754;SDS011;57023;52.218;5.158;2023-03-14T05:32:12;8.23;;;3.28;;
69754;SDS011;57023;52.218;5.158;2023-03-14T05:34:37;8.68;;;2.95;;
69754;SDS011;57023;52.218;5.158;2023-03-14T05:37:03;7.78;;;3.60;;
69754;SDS011;57023;52.218;5.158;2023-03-14T05:39:28;9.93;;;3.85;;
69754;SDS011;57023;52.218;5.158;2023-03-14T05:41:53;12.18;;;4.35;;
69754;SDS011;57023;52.218;5.158;2023-03-14T05:44:20;12.68;;;4.20;;
69754;SDS011;57023;52.218;5.158;2023-03-14T05:46:46;9.70;;;3.45;;
69754;SDS011;57023;52.218;5.158;2023-03-14T05:49:11;11.43;;;3.78;;
69754;SDS011;57023;52.218;5.158;2023-03-14T05:51:36;6.95;;;3.70;;
69754;SDS011;57023;52.218;5.158;2023-03-14T05:54:02;12.07;;;4.60;;
69754;SDS011;57023;52.218;5.158;2023-03-14T05:56:27;9.93;;;3.55;;
69754;SDS011;57023;52.218;5.158;2023-03-14T05:58:52;9.75;;;3.67;;
69754;SDS011;57023;52.218;5.158;2023-03-14T06:01:18;8.70;;;4.20;;
69754;SDS011;57023;52.218;5.158;2023-03-14T06:03:43;12.65;;;4.43;;
69754;SDS011;57023;52.218;5.158;2023-03-14T06:06:08;11.48;;;4.05;;
69754;SDS011;57023;52.218;5.158;2023-03-14T06:08:34;9.63;;;4.10;;
69754;SDS011;57023;52.218;5.158;2023-03-14T06:10:59;10.35;;;4.90;;
69754;SDS011;57023;52.218;5.158;2023-03-14T06:13:24;9.40;;;3.95;;
69754;SDS011;57023;52.218;5.158;2023-03-14T06:15:50;10.20;;;5.35;;
69754;SDS011;57023;52.218;5.158;2023-03-14T06:18:15;10.55;;;4.78;;
69754;SDS011;57023;52.218;5.158;2023-03-14T06:20:40;6.18;;;3.05;;
69754;SDS011;57023;52.218;5.158;2023-03-14T06:23:06;6.93;;;2.72;;
69754;SDS011;57023;52.218;5.158;2023-03-14T06:25:32;5.47;;;2.40;;
69754;SDS011;57023;52.218;5.158;2023-03-14T06:27:58;5.20;;;2.28;;
69754;SDS011;57023;52.218;5.158;2023-03-14T06:30:23;6.07;;;2.40;;
69754;SDS011;57023;52.218;5.158;2023-03-14T06:32:49;4.63;;;2.25;;
69754;SDS011;57023;52.218;5.158;2023-03-14T06:35:14;7.15;;;2.70;;
69754;SDS011;57023;52.218;5.158;2023-03-14T06:37:40;7.85;;;2.50;;
69754;SDS011;57023;52.218;5.158;2023-03-14T06:40:05;7.30;;;2.50;;
69754;SDS011;57023;52.218;5.158;2023-03-14T06:42:32;5.35;;;2.60;;
69754;SDS011;57023;52.218;5.158;2023-03-14T06:44:57;8.30;;;2.80;;
69754;SDS011;57023;52.218;5.158;2023-03-14T06:47:23;5.35;;;2.50;;
69754;SDS011;57023;52.218;5.158;2023-03-14T06:49:49;5.75;;;2.58;;
69754;SDS011;57023;52.218;5.158;2023-03-14T06:52:15;7.70;;;3.10;;
69754;SDS011;57023;52.218;5.158;2023-03-14T06:54:40;6.30;;;2.80;;
69754;SDS011;57023;52.218;5.158;2023-03-14T06:57:05;6.00;;;2.70;;
69754;SDS011;57023;52.218;5.158;2023-03-14T06:59:31;6.85;;;2.67;;
69754;SDS011;57023;52.218;5.158;2023-03-14T07:01:56;5.03;;;2.40;;
69754;SDS011;57023;52.218;5.158;2023-03-14T07:04:21;5.28;;;2.30;;
69754;SDS011;57023;52.218;5.158;2023-03-14T07:06:47;5.40;;;2.10;;
69754;SDS011;57023;52.218;5.158;2023-03-14T07:09:12;5.30;;;2.20;;
69754;SDS011;57023;52.218;5.158;2023-03-14T07:11:38;7.18;;;2.55;;
69754;SDS011;57023;52.218;5.158;2023-03-14T07:14:04;4.07;;;1.80;;
69754;SDS011;57023;52.218;5.158;2023-03-14T07:16:29;4.53;;;1.88;;
69754;SDS011;57023;52.218;5.158;2023-03-14T07:18:57;5.53;;;1.70;;
69754;SDS011;57023;52.218;5.158;2023-03-14T07:21:23;7.00;;;1.50;;
69754;SDS011;57023;52.218;5.158;2023-03-14T07:23:49;6.72;;;1.80;;
69754;SDS011;57023;52.218;5.158;2023-03-14T07:26:14;5.00;;;1.75;;
69754;SDS011;57023;52.218;5.158;2023-03-14T07:28:39;5.85;;;2.08;;
69754;SDS011;57023;52.218;5.158;2023-03-14T07:31:05;5.57;;;1.90;;
69754;SDS011;57023;52.218;5.158;2023-03-14T07:33:30;4.85;;;1.75;;
69754;SDS011;57023;52.218;5.158;2023-03-14T07:35:56;5.20;;;2.03;;
69754;SDS011;57023;52.218;5.158;2023-03-14T07:38:21;7.65;;;1.88;;
69754;SDS011;57023;52.218;5.158;2023-03-14T07:40:46;4.43;;;1.58;;
69754;SDS011;57023;52.218;5.158;2023-03-14T07:43:12;8.50;;;2.10;;
69754;SDS011;57023;52.218;5.158;2023-03-14T07:45:37;4.38;;;1.80;;
69754;SDS011;57023;52.218;5.158;2023-03-14T07:48:02;3.17;;;1.45;;
69754;SDS011;57023;52.218;5.158;2023-03-14T07:50:28;5.03;;;1.70;;
69754;SDS011;57023;52.218;5.158;2023-03-14T07:52:54;6.63;;;2.10;;
69754;SDS011;57023;52.218;5.158;2023-03-14T07:55:19;9.98;;;2.47;;
69754;SDS011;57023;52.218;5.158;2023-03-14T07:57:44;8.65;;;2.10;;
69754;SDS011;57023;52.218;5.158;2023-03-14T08:00:10;9.07;;;2.80;;
69754;SDS011;57023;52.218;5.158;2023-03-14T08:02:36;7.43;;;2.13;;
69754;SDS011;57023;52.218;5.158;2023-03-14T08:05:02;8.93;;;1.90;;
69754;SDS011;57023;52.218;5.158;2023-03-14T08:07:28;6.25;;;1.73;;
69754;SDS011;57023;52.218;5.158;2023-03-14T08:09:53;7.78;;;1.80;;
69754;SDS011;57023;52.218;5.158;2023-03-14T08:12:19;6.10;;;1.75;;
69754;SDS011;57023;52.218;5.158;2023-03-14T08:14:44;6.97;;;1.52;;
69754;SDS011;57023;52.218;5.158;2023-03-14T08:17:09;5.63;;;1.90;;
69754;SDS011;57023;52.218;5.158;2023-03-14T08:19:35;4.97;;;1.45;;
69754;SDS011;57023;52.218;5.158;2023-03-14T08:22:00;5.38;;;1.60;;
69754;SDS011;57023;52.218;5.158;2023-03-14T08:24:25;4.78;;;1.48;;
69754;SDS011;57023;52.218;5.158;2023-03-14T08:26:51;4.60;;;1.38;;
69754;SDS011;57023;52.218;5.158;2023-03-14T08:29:16;5.97;;;1.52;;
69754;SDS011;57023;52.218;5.158;2023-03-14T08:31:41;5.55;;;1.50;;
69754;SDS011;57023;52.218;5.158;2023-03-14T08:34:07;4.55;;;1.58;;
69754;SDS011;57023;52.218;5.158;2023-03-14T08:36:32;4.75;;;1.58;;
69754;SDS011;57023;52.218;5.158;2023-03-14T08:38:58;4.28;;;1.70;;
69754;SDS011;57023;52.218;5.158;2023-03-14T08:41:23;4.57;;;1.50;;
69754;SDS011;57023;52.218;5.158;2023-03-14T08:43:49;7.28;;;1.90;;
69754;SDS011;57023;52.218;5.158;2023-03-14T08:46:14;8.82;;;2.10;;
69754;SDS011;57023;52.218;5.158;2023-03-14T08:48:39;8.43;;;2.00;;
69754;SDS011;57023;52.218;5.158;2023-03-14T08:51:09;8.90;;;2.20;;
69754;SDS011;57023;52.218;5.158;2023-03-14T08:53:35;9.27;;;2.30;;
69754;SDS011;57023;52.218;5.158;2023-03-14T08:56:01;9.73;;;2.30;;
69754;SDS011;57023;52.218;5.158;2023-03-14T08:58:27;13.95;;;3.05;;
69754;SDS011;57023;52.218;5.158;2023-03-14T09:00:52;10.52;;;2.70;;
69754;SDS011;57023;52.218;5.158;2023-03-14T09:03:17;6.97;;;2.15;;
69754;SDS011;57023;52.218;5.158;2023-03-14T09:05:43;13.25;;;2.55;;
69754;SDS011;57023;52.218;5.158;2023-03-14T09:08:08;14.75;;;3.25;;
69754;SDS011;57023;52.218;5.158;2023-03-14T09:10:33;13.45;;;2.50;;
69754;SDS011;57023;52.218;5.158;2023-03-14T09:12:58;15.70;;;2.88;;
69754;SDS011;57023;52.218;5.158;2023-03-14T09:15:25;14.85;;;3.10;;
69754;SDS011;57023;52.218;5.158;2023-03-14T09:17:50;17.98;;;3.03;;
69754;SDS011;57023;52.218;5.158;2023-03-14T09:20:16;14.02;;;2.97;;
69754;SDS011;57023;52.218;5.158;2023-03-14T09:22:41;14.50;;;2.90;;
69754;SDS011;57023;52.218;5.158;2023-03-14T09:25:06;13.25;;;3.22;;
69754;SDS011;57023;52.218;5.158;2023-03-14T09:27:32;12.32;;;3.10;;
69754;SDS011;57023;52.218;5.158;2023-03-14T09:29:57;14.13;;;2.80;;
69754;SDS011;57023;52.218;5.158;2023-03-14T09:32:22;13.23;;;2.75;;
69754;SDS011;57023;52.218;5.158;2023-03-14T09:34:48;14.88;;;2.85;;
69754;SDS011;57023;52.218;5.158;2023-03-14T09:37:13;12.27;;;3.15;;
69754;SDS011;57023;52.218;5.158;2023-03-14T09:39:41;13.85;;;2.60;;
69754;SDS011;57023;52.218;5.158;2023-03-14T09:42:07;12.85;;;2.63;;
69754;SDS011;57023;52.218;5.158;2023-03-14T09:44:36;18.70;;;3.10;;
69754;SDS011;57023;52.218;5.158;2023-03-14T09:47:05;13.30;;;2.80;;
69754;SDS011;57023;52.218;5.158;2023-03-14T09:49:33;10.30;;;2.55;;
69754;SDS011;57023;52.218;5.158;2023-03-14T09:52:00;9.52;;;2.67;;
69754;SDS011;57023;52.218;5.158;2023-03-14T09:56:58;10.70;;;2.60;;
69754;SDS011;57023;52.218;5.158;2023-03-14T09:59:24;12.15;;;2.72;;
69754;SDS011;57023;52.218;5.158;2023-03-14T10:01:51;10.02;;;2.55;;
69754;SDS011;57023;52.218;5.158;2023-03-14T10:04:17;11.60;;;2.80;;
69754;SDS011;57023;52.218;5.158;2023-03-14T10:06:48;15.98;;;3.10;;
69754;SDS011;57023;52.218;5.158;2023-03-14T10:09:15;11.88;;;3.90;;
69754;SDS011;57023;52.218;5.158;2023-03-14T10:11:44;16.42;;;2.95;;
69754;SDS011;57023;52.218;5.158;2023-03-14T10:14:10;12.13;;;2.42;;
69754;SDS011;57023;52.218;5.158;2023-03-14T10:16:42;15.15;;;3.15;;
69754;SDS011;57023;52.218;5.158;2023-03-14T10:19:12;17.08;;;3.10;;
69754;SDS011;57023;52.218;5.158;2023-03-14T10:21:43;19.08;;;3.95;;
69754;SDS011;57023;52.218;5.158;2023-03-14T10:24:19;16.10;;;3.50;;
69754;SDS011;57023;52.218;5.158;2023-03-14T10:27:03;15.68;;;3.40;;
69754;SDS011;57023;52.218;5.158;2023-03-14T10:29:30;16.25;;;3.42;;
69754;SDS011;57023;52.218;5.158;2023-03-14T10:32:06;13.52;;;3.20;;
69754;SDS011;57023;52.218;5.158;2023-03-14T10:34:36;15.35;;;3.30;;
69754;SDS011;57023;52.218;5.158;2023-03-14T10:37:06;13.57;;;3.17;;
69754;SDS011;57023;52.218;5.158;2023-03-14T10:39:46;16.30;;;3.30;;
69754;SDS011;57023;52.218;5.158;2023-03-14T10:44:38;16.85;;;3.55;;
69754;SDS011;57023;52.218;5.158;2023-03-14T10:47:04;18.33;;;3.63;;
69754;SDS011;57023;52.218;5.158;2023-03-14T10:49:33;17.80;;;3.60;;
69754;SDS011;57023;52.218;5.158;2023-03-14T10:54:38;12.40;;;3.20;;
69754;SDS011;57023;52.218;5.158;2023-03-14T10:57:04;18.05;;;4.07;;
69754;SDS011;57023;52.218;5.158;2023-03-14T10:59:37;11.90;;;2.90;;
69754;SDS011;57023;52.218;5.158;2023-03-14T11:02:10;17.75;;;3.42;;
69754;SDS011;57023;52.218;5.158;2023-03-14T11:07:53;12.80;;;2.97;;
69754;SDS011;57023;52.218;5.158;2023-03-14T11:10:33;18.15;;;3.15;;
69754;SDS011;57023;52.218;5.158;2023-03-14T11:18:25;9.35;;;2.60;;
69754;SDS011;57023;52.218;5.158;2023-03-14T11:24:08;13.27;;;2.90;;
69754;SDS011;57023;52.218;5.158;2023-03-14T11:27:12;9.65;;;2.47;;
69754;SDS011;57023;52.218;5.158;2023-03-14T11:29:51;12.25;;;2.90;;
69754;SDS011;57023;52.218;5.158;2023-03-14T11:32:35;12.10;;;2.50;;
69754;SDS011;57023;52.218;5.158;2023-03-14T11:35:08;10.32;;;2.47;;
69754;SDS011;57023;52.218;5.158;2023-03-14T11:37:47;12.70;;;2.50;;
69754;SDS011;57023;52.218;5.158;2023-03-14T11:40:21;12.40;;;2.55;;
69754;SDS011;57023;52.218;5.158;2023-03-14T11:43:34;9.75;;;2.30;;
69754;SDS011;57023;52.218;5.158;2023-03-14T11:45:38;9.20;;;2.20;;
69754;SDS011;57023;52.218;5.158;2023-03-14T11:48:23;7.93;;;2.00;;
69754;SDS011;57023;52.218;5.158;2023-03-14T11:50:55;10.70;;;2.40;;
69754;SDS011;57023;52.218;5.158;2023-03-14T11:56:39;12.23;;;2.65;;
69754;SDS011;57023;52.218;5.158;2023-03-14T12:00:02;11.98;;;2.50;;
69754;SDS011;57023;52.218;5.158;2023-03-14T12:02:21;12.27;;;2.45;;
69754;SDS011;57023;52.218;5.158;2023-03-14T12:08:15;11.38;;;2.70;;
69754;SDS011;57023;52.218;5.158;2023-03-14T12:10:51;9.82;;;2.90;;
69754;SDS011;57023;52.218;5.158;2023-03-14T12:13:20;8.82;;;2.35;;
69754;SDS011;57023;52.218;5.158;2023-03-14T12:15:47;10.70;;;2.35;;
69754;SDS011;57023;52.218;5.158;2023-03-14T12:18:36;10.90;;;2.63;;
69754;SDS011;57023;52.218;5.158;2023-03-14T12:21:04;8.13;;;2.20;;
69754;SDS011;57023;52.218;5.158;2023-03-14T12:23:34;7.95;;;2.00;;
69754;SDS011;57023;52.218;5.158;2023-03-14T12:26:25;7.65;;;2.30;;
69754;SDS011;57023;52.218;5.158;2023-03-14T12:34:03;6.05;;;2.13;;
69754;SDS011;57023;52.218;5.158;2023-03-14T12:41:46;5.53;;;2.00;;
69754;SDS011;57023;52.218;5.158;2023-03-14T12:44:37;7.32;;;2.08;;
69754;SDS011;57023;52.218;5.158;2023-03-14T12:49:44;6.60;;;2.28;;
69754;SDS011;57023;52.218;5.158;2023-03-14T12:52:13;9.80;;;2.30;;
69754;SDS011;57023;52.218;5.158;2023-03-14T12:54:42;11.10;;;2.40;;
69754;SDS011;57023;52.218;5.158;2023-03-14T13:02:49;5.47;;;1.80;;
69754;SDS011;57023;52.218;5.158;2023-03-14T13:05:21;8.05;;;2.45;;
69754;SDS011;57023;52.218;5.158;2023-03-14T13:12:39;8.77;;;2.73;;
69754;SDS011;57023;52.218;5.158;2023-03-14T13:15:18;10.20;;;2.40;;
69754;SDS011;57023;52.218;5.158;2023-03-14T13:17:46;7.97;;;2.60;;
69754;SDS011;57023;52.218;5.158;2023-03-14T13:20:20;7.20;;;2.33;;
69754;SDS011;57023;52.218;5.158;2023-03-14T13:22:48;5.97;;;2.08;;
69754;SDS011;57023;52.218;5.158;2023-03-14T13:25:15;6.55;;;1.88;;
69754;SDS011;57023;52.218;5.158;2023-03-14T13:27:41;7.03;;;2.30;;
69754;SDS011;57023;52.218;5.158;2023-03-14T13:30:17;8.48;;;2.13;;
69754;SDS011;57023;52.218;5.158;2023-03-14T13:32:43;9.55;;;2.50;;
69754;SDS011;57023;52.218;5.158;2023-03-14T13:35:20;9.93;;;2.10;;
69754;SDS011;57023;52.218;5.158;2023-03-14T13:37:57;8.80;;;2.30;;
69754;SDS011;57023;52.218;5.158;2023-03-14T13:40:25;12.50;;;2.50;;
69754;SDS011;57023;52.218;5.158;2023-03-14T13:43:05;10.70;;;2.75;;
69754;SDS011;57023;52.218;5.158;2023-03-14T13:45:51;9.40;;;2.63;;
69754;SDS011;57023;52.218;5.158;2023-03-14T13:48:18;8.77;;;2.47;;
69754;SDS011;57023;52.218;5.158;2023-03-14T13:51:05;9.40;;;2.30;;
69754;SDS011;57023;52.218;5.158;2023-03-14T13:53:30;6.93;;;2.15;;
69754;SDS011;57023;52.218;5.158;2023-03-14T13:55:56;10.07;;;2.28;;
69754;SDS011;57023;52.218;5.158;2023-03-14T13:58:28;10.65;;;2.67;;
69754;SDS011;57023;52.218;5.158;2023-03-14T14:01:05;7.93;;;2.40;;
69754;SDS011;57023;52.218;5.158;2023-03-14T14:03:32;6.88;;;2.35;;
69754;SDS011;57023;52.218;5.158;2023-03-14T14:05:59;6.85;;;2.17;;
69754;SDS011;57023;52.218;5.158;2023-03-14T14:08:25;9.07;;;2.10;;
69754;SDS011;57023;52.218;5.158;2023-03-14T14:10:50;5.82;;;1.90;;
69754;SDS011;57023;52.218;5.158;2023-03-14T14:13:19;8.60;;;2.20;;
69754;SDS011;57023;52.218;5.158;2023-03-14T14:15:47;6.93;;;2.00;;
69754;SDS011;57023;52.218;5.158;2023-03-14T14:18:14;6.88;;;2.40;;
69754;SDS011;57023;52.218;5.158;2023-03-14T14:20:42;5.07;;;1.85;;
69754;SDS011;57023;52.218;5.158;2023-03-14T14:23:10;10.25;;;2.40;;
69754;SDS011;57023;52.218;5.158;2023-03-14T14:25:40;8.00;;;2.10;;
69754;SDS011;57023;52.218;5.158;2023-03-14T14:30:45;6.00;;;2.00;;
69754;SDS011;57023;52.218;5.158;2023-03-14T14:33:18;6.53;;;2.45;;
69754;SDS011;57023;52.218;5.158;2023-03-14T14:35:51;7.07;;;2.22;;
69754;SDS011;57023;52.218;5.158;2023-03-14T14:38:20;7.28;;;2.30;;
69754;SDS011;57023;52.218;5.158;2023-03-14T14:40:46;5.40;;;2.05;;
69754;SDS011;57023;52.218;5.158;2023-03-14T14:43:20;5.68;;;2.10;;
69754;SDS011;57023;52.218;5.158;2023-03-14T14:45:48;7.45;;;2.10;;
69754;SDS011;57023;52.218;5.158;2023-03-14T14:48:15;6.57;;;2.22;;
69754;SDS011;57023;52.218;5.158;2023-03-14T14:53:19;6.00;;;1.90;;
69754;SDS011;57023;52.218;5.158;2023-03-14T14:55:51;7.05;;;2.10;;
69754;SDS011;57023;52.218;5.158;2023-03-14T14:58:26;5.93;;;2.00;;
69754;SDS011;57023;52.218;5.158;2023-03-14T15:03:28;5.90;;;2.15;;
69754;SDS011;57023;52.218;5.158;2023-03-14T15:05:55;5.68;;;2.08;;
69754;SDS011;57023;52.218;5.158;2023-03-14T15:08:21;8.32;;;2.25;;
69754;SDS011;57023;52.218;5.158;2023-03-14T15:10:46;6.10;;;1.90;;
69754;SDS011;57023;52.218;5.158;2023-03-14T15:13:11;6.10;;;2.15;;
69754;SDS011;57023;52.218;5.158;2023-03-14T15:15:37;8.13;;;2.10;;
69754;SDS011;57023;52.218;5.158;2023-03-14T15:18:04;5.55;;;2.13;;
69754;SDS011;57023;52.218;5.158;2023-03-14T15:20:38;4.95;;;2.00;;
69754;SDS011;57023;52.218;5.158;2023-03-14T15:23:07;6.03;;;2.00;;
69754;SDS011;57023;52.218;5.158;2023-03-14T15:25:34;5.53;;;1.63;;
69754;SDS011;57023;52.218;5.158;2023-03-14T15:28:00;8.93;;;2.20;;
69754;SDS011;57023;52.218;5.158;2023-03-14T15:30:25;5.53;;;1.90;;
69754;SDS011;57023;52.218;5.158;2023-03-14T15:32:50;6.57;;;2.60;;
69754;SDS011;57023;52.218;5.158;2023-03-14T15:35:16;9.65;;;2.47;;
69754;SDS011;57023;52.218;5.158;2023-03-14T15:37:41;6.88;;;2.10;;
69754;SDS011;57023;52.218;5.158;2023-03-14T15:40:09;9.75;;;2.40;;
69754;SDS011;57023;52.218;5.158;2023-03-14T15:42:38;7.35;;;2.22;;
69754;SDS011;57023;52.218;5.158;2023-03-14T15:45:04;9.52;;;2.60;;
69754;SDS011;57023;52.218;5.158;2023-03-14T15:47:29;9.10;;;2.50;;
69754;SDS011;57023;52.218;5.158;2023-03-14T15:49:57;8.63;;;2.05;;
69754;SDS011;57023;52.218;5.158;2023-03-14T15:52:22;8.73;;;2.40;;